Toano, Virginia
Current Conditions -  °F | °C
As of 5:15 PM on Tuesday 21 Oct 2014 (Local Time) from KFYJ Reporting Station
Broken Clouds Broken Clouds  
Wind Chill: 73°   Ceiling: 11000
Heat Index: 73°   Visibility: 10mi
Dew Point: 46°   Wind: 6mph
Humidity: 39%   Direction: 240°WSW
Pressure: 29.81"   Gusts: NA
Location:  37.38°N, 76.8°W
Report Text: KFYJ 212115Z AUTO 24005KT 10SM BKN110 23/08 A2981 RMK AO2 T02270079
Loading
Personal Weather Stations






























Interactive Weather Map
Tropical Storm Tracking
New forecast layout! Learn more

10-Day Weather Forecast

Advertisements
Track Severe Weather on mobile